sensor_id;sensor_type;location;lat;lon;timestamp;temperature;humidity
71128;SHT30;59249;59.736;30.568;2023-04-03T00:01:34;-0.43;80.90
71128;SHT30;59249;59.736;30.568;2023-04-03T00:04:06;-0.41;81.16
71128;SHT30;59249;59.736;30.568;2023-04-03T00:06:35;-0.43;81.29
71128;SHT30;59249;59.736;30.568;2023-04-03T00:09:04;-0.54;81.57
71128;SHT30;59249;59.736;30.568;2023-04-03T00:11:35;-0.54;81.82
71128;SHT30;59249;59.736;30.568;2023-04-03T00:14:04;-0.48;81.90
71128;SHT30;59249;59.736;30.568;2023-04-03T00:16:33;-0.66;82.43
71128;SHT30;59249;59.736;30.568;2023-04-03T00:19:02;-0.51;82.54
71128;SHT30;59249;59.736;30.568;2023-04-03T00:21:32;-0.50;82.68
71128;SHT30;59249;59.736;30.568;2023-04-03T00:24:00;-0.60;82.74
71128;SHT30;59249;59.736;30.568;2023-04-03T00:26:29;-0.66;82.78
71128;SHT30;59249;59.736;30.568;2023-04-03T00:28:58;-0.66;83.03
71128;SHT30;59249;59.736;30.568;2023-04-03T00:31:27;-0.61;82.83
71128;SHT30;59249;59.736;30.568;2023-04-03T00:33:55;-0.66;83.00
71128;SHT30;59249;59.736;30.568;2023-04-03T00:36:24;-0.67;83.04
71128;SHT30;59249;59.736;30.568;2023-04-03T00:38:55;-0.66;82.97
71128;SHT30;59249;59.736;30.568;2023-04-03T00:41:23;-0.68;83.11
71128;SHT30;59249;59.736;30.568;2023-04-03T00:43:53;-0.59;83.05
71128;SHT30;59249;59.736;30.568;2023-04-03T00:46:21;-0.66;83.11
71128;SHT30;59249;59.736;30.568;2023-04-03T00:48:50;-0.63;83.10
71128;SHT30;59249;59.736;30.568;2023-04-03T00:51:23;-0.56;83.32
71128;SHT30;59249;59.736;30.568;2023-04-03T00:53:58;-0.56;83.12
71128;SHT30;59249;59.736;30.568;2023-04-03T00:56:29;-0.59;82.98
71128;SHT30;59249;59.736;30.568;2023-04-03T00:59:02;-0.66;83.24
71128;SHT30;59249;59.736;30.568;2023-04-03T01:01:32;-0.49;83.05
71128;SHT30;59249;59.736;30.568;2023-04-03T01:04:02;-0.65;83.34
71128;SHT30;59249;59.736;30.568;2023-04-03T01:06:36;-0.69;83.53
71128;SHT30;59249;59.736;30.568;2023-04-03T01:09:09;-0.66;83.59
71128;SHT30;59249;59.736;30.568;2023-04-03T01:11:42;-0.74;83.54
71128;SHT30;59249;59.736;30.568;2023-04-03T01:14:10;-0.76;83.34
71128;SHT30;59249;59.736;30.568;2023-04-03T01:16:39;-0.58;82.94
71128;SHT30;59249;59.736;30.568;2023-04-03T01:19:14;-0.67;83.29
71128;SHT30;59249;59.736;30.568;2023-04-03T01:22:02;-0.80;83.26
71128;SHT30;59249;59.736;30.568;2023-04-03T01:24:37;-0.80;83.51
71128;SHT30;59249;59.736;30.568;2023-04-03T01:27:10;-0.80;83.37
71128;SHT30;59249;59.736;30.568;2023-04-03T01:29:40;-0.64;83.25
71128;SHT30;59249;59.736;30.568;2023-04-03T01:32:12;-0.71;83.22
71128;SHT30;59249;59.736;30.568;2023-04-03T01:34:42;-0.84;83.33
71128;SHT30;59249;59.736;30.568;2023-04-03T01:37:36;-0.83;83.47
71128;SHT30;59249;59.736;30.568;2023-04-03T01:40:06;-0.78;83.25
71128;SHT30;59249;59.736;30.568;2023-04-03T01:42:35;-0.74;83.17
71128;SHT30;59249;59.736;30.568;2023-04-03T01:45:06;-0.69;83.32
71128;SHT30;59249;59.736;30.568;2023-04-03T01:47:36;-0.78;83.29
71128;SHT30;59249;59.736;30.568;2023-04-03T01:50:06;-0.76;83.11
71128;SHT30;59249;59.736;30.568;2023-04-03T01:52:35;-0.77;83.18
71128;SHT30;59249;59.736;30.568;2023-04-03T01:55:06;-0.78;83.04
71128;SHT30;59249;59.736;30.568;2023-04-03T01:57:35;-0.92;83.21
71128;SHT30;59249;59.736;30.568;2023-04-03T02:00:05;-0.80;82.96
71128;SHT30;59249;59.736;30.568;2023-04-03T02:02:40;-0.83;82.99
71128;SHT30;59249;59.736;30.568;2023-04-03T02:05:09;-0.78;83.04
71128;SHT30;59249;59.736;30.568;2023-04-03T02:07:38;-0.85;83.05
71128;SHT30;59249;59.736;30.568;2023-04-03T02:10:08;-0.94;83.18
71128;SHT30;59249;59.736;30.568;2023-04-03T02:12:38;-0.92;83.07
71128;SHT30;59249;59.736;30.568;2023-04-03T02:15:08;-0.93;82.81
71128;SHT30;59249;59.736;30.568;2023-04-03T02:17:37;-0.86;82.37
71128;SHT30;59249;59.736;30.568;2023-04-03T02:20:08;-1.07;82.79
71128;SHT30;59249;59.736;30.568;2023-04-03T02:22:37;-1.04;82.78
71128;SHT30;59249;59.736;30.568;2023-04-03T02:25:07;-0.96;82.52
71128;SHT30;59249;59.736;30.568;2023-04-03T02:27:37;-1.02;82.83
71128;SHT30;59249;59.736;30.568;2023-04-03T02:30:07;-1.06;82.72
71128;SHT30;59249;59.736;30.568;2023-04-03T02:32:38;-1.04;82.76
71128;SHT30;59249;59.736;30.568;2023-04-03T02:35:09;-1.11;82.71
71128;SHT30;59249;59.736;30.568;2023-04-03T02:37:40;-1.08;82.61
71128;SHT30;59249;59.736;30.568;2023-04-03T02:40:09;-1.06;82.63
71128;SHT30;59249;59.736;30.568;2023-04-03T02:42:39;-1.01;82.28
71128;SHT30;59249;59.736;30.568;2023-04-03T02:45:08;-1.07;82.40
71128;SHT30;59249;59.736;30.568;2023-04-03T02:47:37;-1.11;82.50
71128;SHT30;59249;59.736;30.568;2023-04-03T02:50:06;-1.09;82.51
71128;SHT30;59249;59.736;30.568;2023-04-03T02:52:36;-1.07;82.60
71128;SHT30;59249;59.736;30.568;2023-04-03T02:55:07;-1.06;82.67
71128;SHT30;59249;59.736;30.568;2023-04-03T02:57:36;-1.08;82.66
71128;SHT30;59249;59.736;30.568;2023-04-03T03:00:06;-1.15;82.82
71128;SHT30;59249;59.736;30.568;2023-04-03T03:02:36;-1.24;83.02
71128;SHT30;59249;59.736;30.568;2023-04-03T03:05:05;-1.18;83.10
71128;SHT30;59249;59.736;30.568;2023-04-03T03:07:33;-1.20;83.11
71128;SHT30;59249;59.736;30.568;2023-04-03T03:10:05;-1.26;83.57
71128;SHT30;59249;59.736;30.568;2023-04-03T03:12:34;-1.14;83.32
71128;SHT30;59249;59.736;30.568;2023-04-03T03:15:04;-1.21;83.45
71128;SHT30;59249;59.736;30.568;2023-04-03T03:17:33;-1.11;83.62
71128;SHT30;59249;59.736;30.568;2023-04-03T03:20:05;-1.09;83.63
71128;SHT30;59249;59.736;30.568;2023-04-03T03:22:34;-1.09;83.59
71128;SHT30;59249;59.736;30.568;2023-04-03T03:25:06;-1.09;83.57
71128;SHT30;59249;59.736;30.568;2023-04-03T03:27:35;-1.03;83.53
71128;SHT30;59249;59.736;30.568;2023-04-03T03:30:06;-1.08;83.68
71128;SHT30;59249;59.736;30.568;2023-04-03T03:32:35;-1.13;83.91
71128;SHT30;59249;59.736;30.568;2023-04-03T03:35:05;-1.05;84.25
71128;SHT30;59249;59.736;30.568;2023-04-03T03:37:33;-1.08;84.07
71128;SHT30;59249;59.736;30.568;2023-04-03T03:40:05;-1.05;84.06
71128;SHT30;59249;59.736;30.568;2023-04-03T03:42:34;-1.04;84.15
71128;SHT30;59249;59.736;30.568;2023-04-03T03:45:04;-0.99;84.07
71128;SHT30;59249;59.736;30.568;2023-04-03T03:47:32;-1.04;84.51
71128;SHT30;59249;59.736;30.568;2023-04-03T03:50:02;-1.04;84.32
71128;SHT30;59249;59.736;30.568;2023-04-03T03:52:31;-1.01;84.22
71128;SHT30;59249;59.736;30.568;2023-04-03T03:55:00;-0.87;83.83
71128;SHT30;59249;59.736;30.568;2023-04-03T03:57:30;-0.93;84.07
71128;SHT30;59249;59.736;30.568;2023-04-03T04:00:00;-0.95;84.00
71128;SHT30;59249;59.736;30.568;2023-04-03T04:02:30;-0.94;84.08
71128;SHT30;59249;59.736;30.568;2023-04-03T04:04:59;-1.02;84.26
71128;SHT30;59249;59.736;30.568;2023-04-03T04:07:29;-0.99;84.79
71128;SHT30;59249;59.736;30.568;2023-04-03T04:09:58;-0.96;84.48
71128;SHT30;59249;59.736;30.568;2023-04-03T04:12:26;-0.99;84.54
71128;SHT30;59249;59.736;30.568;2023-04-03T04:14:56;-0.97;84.32
71128;SHT30;59249;59.736;30.568;2023-04-03T04:17:26;-0.95;84.23
71128;SHT30;59249;59.736;30.568;2023-04-03T04:19:56;-0.86;84.49
71128;SHT30;59249;59.736;30.568;2023-04-03T04:22:26;-1.04;84.59
71128;SHT30;59249;59.736;30.568;2023-04-03T04:24:56;-0.85;84.12
71128;SHT30;59249;59.736;30.568;2023-04-03T04:27:25;-1.11;84.14
71128;SHT30;59249;59.736;30.568;2023-04-03T04:29:56;-0.90;84.55
71128;SHT30;59249;59.736;30.568;2023-04-03T04:32:26;-0.98;84.44
71128;SHT30;59249;59.736;30.568;2023-04-03T04:34:55;-0.96;84.24
71128;SHT30;59249;59.736;30.568;2023-04-03T04:37:25;-0.86;84.24
71128;SHT30;59249;59.736;30.568;2023-04-03T04:39:53;-0.77;84.12
71128;SHT30;59249;59.736;30.568;2023-04-03T04:42:22;-0.80;84.14
71128;SHT30;59249;59.736;30.568;2023-04-03T04:44:51;-0.89;84.30
71128;SHT30;59249;59.736;30.568;2023-04-03T04:47:21;-0.75;84.21
71128;SHT30;59249;59.736;30.568;2023-04-03T04:49:50;-0.62;83.79
71128;SHT30;59249;59.736;30.568;2023-04-03T04:52:20;-0.66;83.58
71128;SHT30;59249;59.736;30.568;2023-04-03T04:54:49;-0.66;83.82
71128;SHT30;59249;59.736;30.568;2023-04-03T04:57:18;-0.66;83.66
71128;SHT30;59249;59.736;30.568;2023-04-03T04:59:47;-0.54;83.34
71128;SHT30;59249;59.736;30.568;2023-04-03T05:02:16;-0.62;83.45
71128;SHT30;59249;59.736;30.568;2023-04-03T05:04:46;-0.49;82.69
71128;SHT30;59249;59.736;30.568;2023-04-03T05:07:21;-0.62;83.33
71128;SHT30;59249;59.736;30.568;2023-04-03T05:09:50;-0.59;83.24
71128;SHT30;59249;59.736;30.568;2023-04-03T05:12:18;-0.43;83.18
71128;SHT30;59249;59.736;30.568;2023-04-03T05:14:53;-0.51;83.08
71128;SHT30;59249;59.736;30.568;2023-04-03T05:17:23;-0.35;82.82
71128;SHT30;59249;59.736;30.568;2023-04-03T05:19:56;-0.30;82.46
71128;SHT30;59249;59.736;30.568;2023-04-03T05:22:26;-0.34;82.72
71128;SHT30;59249;59.736;30.568;2023-04-03T05:25:00;-0.32;82.95
71128;SHT30;59249;59.736;30.568;2023-04-03T05:27:29;-0.26;82.82
71128;SHT30;59249;59.736;30.568;2023-04-03T05:29:59;-0.14;82.75
71128;SHT30;59249;59.736;30.568;2023-04-03T05:32:29;-0.04;82.40
71128;SHT30;59249;59.736;30.568;2023-04-03T05:35:20;0.13;82.26
71128;SHT30;59249;59.736;30.568;2023-04-03T05:37:51;0.24;81.95
71128;SHT30;59249;59.736;30.568;2023-04-03T05:40:21;0.27;81.77
71128;SHT30;59249;59.736;30.568;2023-04-03T05:42:53;0.21;81.26
71128;SHT30;59249;59.736;30.568;2023-04-03T05:45:24;0.29;81.32
71128;SHT30;59249;59.736;30.568;2023-04-03T05:47:53;0.22;81.13
71128;SHT30;59249;59.736;30.568;2023-04-03T05:50:24;0.20;81.14
71128;SHT30;59249;59.736;30.568;2023-04-03T05:52:57;0.26;81.08
71128;SHT30;59249;59.736;30.568;2023-04-03T05:55:28;0.19;81.46
71128;SHT30;59249;59.736;30.568;2023-04-03T05:57:57;0.14;81.52
71128;SHT30;59249;59.736;30.568;2023-04-03T06:00:26;0.17;81.06
71128;SHT30;59249;59.736;30.568;2023-04-03T06:03:01;0.27;81.01
71128;SHT30;59249;59.736;30.568;2023-04-03T06:05:31;0.41;80.51
71128;SHT30;59249;59.736;30.568;2023-04-03T06:08:00;0.41;80.35
71128;SHT30;59249;59.736;30.568;2023-04-03T06:10:30;0.56;80.19
71128;SHT30;59249;59.736;30.568;2023-04-03T06:12:59;0.53;80.72
71128;SHT30;59249;59.736;30.568;2023-04-03T06:15:28;0.57;80.63
71128;SHT30;59249;59.736;30.568;2023-04-03T06:17:57;0.66;80.57
71128;SHT30;59249;59.736;30.568;2023-04-03T06:20:26;0.78;80.07
71128;SHT30;59249;59.736;30.568;2023-04-03T06:22:57;0.69;80.03
71128;SHT30;59249;59.736;30.568;2023-04-03T06:25:27;0.71;80.08
71128;SHT30;59249;59.736;30.568;2023-04-03T06:27:56;0.81;79.60
71128;SHT30;59249;59.736;30.568;2023-04-03T06:30:24;0.79;79.68
71128;SHT30;59249;59.736;30.568;2023-04-03T06:32:54;0.73;79.71
71128;SHT30;59249;59.736;30.568;2023-04-03T06:35:24;0.58;79.84
71128;SHT30;59249;59.736;30.568;2023-04-03T06:37:55;0.56;80.71
71128;SHT30;59249;59.736;30.568;2023-04-03T06:40:25;0.61;80.54
71128;SHT30;59249;59.736;30.568;2023-04-03T06:42:54;0.65;80.12
71128;SHT30;59249;59.736;30.568;2023-04-03T06:45:23;0.64;80.90
71128;SHT30;59249;59.736;30.568;2023-04-03T06:47:52;0.60;80.87
71128;SHT30;59249;59.736;30.568;2023-04-03T06:50:21;0.72;80.52
71128;SHT30;59249;59.736;30.568;2023-04-03T06:52:50;0.76;80.78
71128;SHT30;59249;59.736;30.568;2023-04-03T06:55:20;0.78;80.38
71128;SHT30;59249;59.736;30.568;2023-04-03T06:57:49;0.87;80.26
71128;SHT30;59249;59.736;30.568;2023-04-03T07:00:19;0.88;80.19
71128;SHT30;59249;59.736;30.568;2023-04-03T07:02:48;0.89;79.20
71128;SHT30;59249;59.736;30.568;2023-04-03T07:05:17;0.99;79.59
71128;SHT30;59249;59.736;30.568;2023-04-03T07:07:46;0.90;79.58
71128;SHT30;59249;59.736;30.568;2023-04-03T07:10:14;1.01;79.37
71128;SHT30;59249;59.736;30.568;2023-04-03T07:12:44;0.91;79.40
71128;SHT30;59249;59.736;30.568;2023-04-03T07:15:14;1.00;79.41
71128;SHT30;59249;59.736;30.568;2023-04-03T07:17:48;0.85;80.36
71128;SHT30;59249;59.736;30.568;2023-04-03T07:20:31;0.92;80.20
71128;SHT30;59249;59.736;30.568;2023-04-03T07:22:59;0.95;79.89
71128;SHT30;59249;59.736;30.568;2023-04-03T07:25:31;0.86;79.93
71128;SHT30;59249;59.736;30.568;2023-04-03T07:28:02;0.88;80.17
71128;SHT30;59249;59.736;30.568;2023-04-03T07:30:31;0.86;79.66
71128;SHT30;59249;59.736;30.568;2023-04-03T07:33:00;0.97;79.84
71128;SHT30;59249;59.736;30.568;2023-04-03T07:35:29;1.04;79.02
71128;SHT30;59249;59.736;30.568;2023-04-03T07:37:58;1.04;79.33
71128;SHT30;59249;59.736;30.568;2023-04-03T07:40:26;1.07;79.66
71128;SHT30;59249;59.736;30.568;2023-04-03T07:42:55;1.26;79.36
71128;SHT30;59249;59.736;30.568;2023-04-03T07:45:26;1.31;79.26
71128;SHT30;59249;59.736;30.568;2023-04-03T07:47:55;1.30;79.57
71128;SHT30;59249;59.736;30.568;2023-04-03T07:50:26;1.48;79.07
71128;SHT30;59249;59.736;30.568;2023-04-03T07:52:55;1.55;77.87
71128;SHT30;59249;59.736;30.568;2023-04-03T07:55:25;1.42;77.83
71128;SHT30;59249;59.736;30.568;2023-04-03T07:57:54;1.45;78.65
71128;SHT30;59249;59.736;30.568;2023-04-03T08:00:23;1.52;79.27
71128;SHT30;59249;59.736;30.568;2023-04-03T08:02:55;1.70;78.62
71128;SHT30;59249;59.736;30.568;2023-04-03T08:05:23;1.86;78.14
71128;SHT30;59249;59.736;30.568;2023-04-03T08:07:53;1.64;77.88
71128;SHT30;59249;59.736;30.568;2023-04-03T08:10:21;1.48;78.17
71128;SHT30;59249;59.736;30.568;2023-04-03T08:12:50;1.36;78.79
71128;SHT30;59249;59.736;30.568;2023-04-03T08:15:19;1.30;79.18
71128;SHT30;59249;59.736;30.568;2023-04-03T08:17:48;1.37;78.66
71128;SHT30;59249;59.736;30.568;2023-04-03T08:20:18;1.32;79.04
71128;SHT30;59249;59.736;30.568;2023-04-03T08:22:47;1.20;79.44
71128;SHT30;59249;59.736;30.568;2023-04-03T08:25:16;1.27;79.47
71128;SHT30;59249;59.736;30.568;2023-04-03T08:27:45;1.25;78.95
71128;SHT30;59249;59.736;30.568;2023-04-03T08:30:14;1.17;78.69
71128;SHT30;59249;59.736;30.568;2023-04-03T08:32:43;1.17;78.93
71128;SHT30;59249;59.736;30.568;2023-04-03T08:35:12;1.18;79.15
71128;SHT30;59249;59.736;30.568;2023-04-03T08:37:42;1.32;78.94
71128;SHT30;59249;59.736;30.568;2023-04-03T08:40:15;1.30;78.84
71128;SHT30;59249;59.736;30.568;2023-04-03T08:42:57;1.31;78.27
71128;SHT30;59249;59.736;30.568;2023-04-03T08:45:42;1.43;78.40
71128;SHT30;59249;59.736;30.568;2023-04-03T08:48:19;1.48;77.55
71128;SHT30;59249;59.736;30.568;2023-04-03T08:51:14;1.55;77.27
71128;SHT30;59249;59.736;30.568;2023-04-03T08:54:01;1.60;76.87
71128;SHT30;59249;59.736;30.568;2023-04-03T08:56:35;1.50;76.55
71128;SHT30;59249;59.736;30.568;2023-04-03T08:59:24;1.67;76.81
71128;SHT30;59249;59.736;30.568;2023-04-03T09:01:56;1.60;75.94
71128;SHT30;59249;59.736;30.568;2023-04-03T09:04:27;1.63;75.88
71128;SHT30;59249;59.736;30.568;2023-04-03T09:07:08;1.61;76.65
71128;SHT30;59249;59.736;30.568;2023-04-03T09:09:42;1.56;77.20
71128;SHT30;59249;59.736;30.568;2023-04-03T09:12:19;1.74;76.37
71128;SHT30;59249;59.736;30.568;2023-04-03T09:15:06;1.79;75.82
71128;SHT30;59249;59.736;30.568;2023-04-03T09:17:48;1.70;76.09
71128;SHT30;59249;59.736;30.568;2023-04-03T09:20:25;1.90;75.78
71128;SHT30;59249;59.736;30.568;2023-04-03T09:22:57;1.88;75.20
71128;SHT30;59249;59.736;30.568;2023-04-03T09:25:31;1.94;75.15
71128;SHT30;59249;59.736;30.568;2023-04-03T09:28:02;1.92;75.34
71128;SHT30;59249;59.736;30.568;2023-04-03T09:30:37;1.80;75.37
71128;SHT30;59249;59.736;30.568;2023-04-03T09:33:06;1.74;75.55
71128;SHT30;59249;59.736;30.568;2023-04-03T09:35:37;1.73;76.24
71128;SHT30;59249;59.736;30.568;2023-04-03T09:38:18;1.86;76.31
71128;SHT30;59249;59.736;30.568;2023-04-03T09:40:51;2.05;75.73
71128;SHT30;59249;59.736;30.568;2023-04-03T09:43:33;2.02;75.87
71128;SHT30;59249;59.736;30.568;2023-04-03T09:46:33;1.93;75.87
71128;SHT30;59249;59.736;30.568;2023-04-03T09:49:10;1.96;75.77
71128;SHT30;59249;59.736;30.568;2023-04-03T09:51:40;2.04;75.78
71128;SHT30;59249;59.736;30.568;2023-04-03T09:54:36;2.18;75.49
71128;SHT30;59249;59.736;30.568;2023-04-03T09:57:12;1.99;75.61
71128;SHT30;59249;59.736;30.568;2023-04-03T09:59:47;1.95;75.47
71128;SHT30;59249;59.736;30.568;2023-04-03T10:02:35;2.11;75.19
71128;SHT30;59249;59.736;30.568;2023-04-03T10:05:26;2.02;75.56
71128;SHT30;59249;59.736;30.568;2023-04-03T10:08:09;1.96;75.96
71128;SHT30;59249;59.736;30.568;2023-04-03T10:10:40;1.96;75.89
71128;SHT30;59249;59.736;30.568;2023-04-03T10:13:13;2.08;75.71
71128;SHT30;59249;59.736;30.568;2023-04-03T10:15:56;2.07;75.51
71128;SHT30;59249;59.736;30.568;2023-04-03T10:18:33;2.11;75.02
71128;SHT30;59249;59.736;30.568;2023-04-03T10:21:15;2.05;75.26
71128;SHT30;59249;59.736;30.568;2023-04-03T10:24:03;2.00;75.50
71128;SHT30;59249;59.736;30.568;2023-04-03T10:26:45;2.13;75.43
71128;SHT30;59249;59.736;30.568;2023-04-03T10:29:31;2.15;75.28
71128;SHT30;59249;59.736;30.568;2023-04-03T10:32:23;2.21;74.76
71128;SHT30;59249;59.736;30.568;2023-04-03T10:35:10;2.19;74.29
71128;SHT30;59249;59.736;30.568;2023-04-03T10:37:57;2.25;73.81
71128;SHT30;59249;59.736;30.568;2023-04-03T10:40:34;2.21;74.23
71128;SHT30;59249;59.736;30.568;2023-04-03T10:43:16;2.34;73.66
71128;SHT30;59249;59.736;30.568;2023-04-03T10:45:58;2.41;73.16
71128;SHT30;59249;59.736;30.568;2023-04-03T10:48:40;2.28;73.60
71128;SHT30;59249;59.736;30.568;2023-04-03T10:51:23;2.27;74.04
71128;SHT30;59249;59.736;30.568;2023-04-03T10:54:01;2.29;73.70
71128;SHT30;59249;59.736;30.568;2023-04-03T10:56:39;2.30;73.14
71128;SHT30;59249;59.736;30.568;2023-04-03T10:59:21;2.16;73.68
71128;SHT30;59249;59.736;30.568;2023-04-03T11:01:56;2.18;74.48
71128;SHT30;59249;59.736;30.568;2023-04-03T11:04:31;2.32;74.20
71128;SHT30;59249;59.736;30.568;2023-04-03T11:07:10;2.29;74.11
71128;SHT30;59249;59.736;30.568;2023-04-03T11:09:43;2.21;73.81
71128;SHT30;59249;59.736;30.568;2023-04-03T11:12:18;2.24;74.11
71128;SHT30;59249;59.736;30.568;2023-04-03T11:14:51;2.04;74.71
71128;SHT30;59249;59.736;30.568;2023-04-03T11:17:32;2.11;74.10
71128;SHT30;59249;59.736;30.568;2023-04-03T11:20:14;2.12;74.10
71128;SHT30;59249;59.736;30.568;2023-04-03T11:22:50;2.04;74.88
71128;SHT30;59249;59.736;30.568;2023-04-03T11:25:23;1.92;75.07
71128;SHT30;59249;59.736;30.568;2023-04-03T11:27:57;2.04;75.08
71128;SHT30;59249;59.736;30.568;2023-04-03T11:30:32;1.93;75.83
71128;SHT30;59249;59.736;30.568;2023-04-03T11:33:27;2.11;74.88
71128;SHT30;59249;59.736;30.568;2023-04-03T11:36:03;1.93;75.34
71128;SHT30;59249;59.736;30.568;2023-04-03T11:38:54;1.88;75.75
71128;SHT30;59249;59.736;30.568;2023-04-03T11:41:29;1.90;75.72
71128;SHT30;59249;59.736;30.568;2023-04-03T11:44:02;2.02;75.89
71128;SHT30;59249;59.736;30.568;2023-04-03T11:46:52;1.89;76.46
71128;SHT30;59249;59.736;30.568;2023-04-03T11:50:00;1.78;77.13
71128;SHT30;59249;59.736;30.568;2023-04-03T11:52:58;1.87;76.89
71128;SHT30;59249;59.736;30.568;2023-04-03T11:55:57;1.96;76.90
71128;SHT30;59249;59.736;30.568;2023-04-03T11:58:29;1.85;76.66
71128;SHT30;59249;59.736;30.568;2023-04-03T12:01:10;1.81;77.59
71128;SHT30;59249;59.736;30.568;2023-04-03T12:04:11;1.83;78.09
71128;SHT30;59249;59.736;30.568;2023-04-03T12:10:17;1.83;78.96
71128;SHT30;59249;59.736;30.568;2023-04-03T12:13:00;1.81;78.25
71128;SHT30;59249;59.736;30.568;2023-04-03T12:15:52;1.87;78.86
71128;SHT30;59249;59.736;30.568;2023-04-03T12:19:00;1.71;78.52
71128;SHT30;59249;59.736;30.568;2023-04-03T12:22:14;1.63;78.97
71128;SHT30;59249;59.736;30.568;2023-04-03T12:24:46;1.77;78.66
71128;SHT30;59249;59.736;30.568;2023-04-03T12:27:25;1.80;79.08
71128;SHT30;59249;59.736;30.568;2023-04-03T12:30:16;1.72;79.16
71128;SHT30;59249;59.736;30.568;2023-04-03T12:33:23;1.67;79.54
71128;SHT30;59249;59.736;30.568;2023-04-03T12:36:06;1.68;79.49
71128;SHT30;59249;59.736;30.568;2023-04-03T12:39:21;1.69;79.50
71128;SHT30;59249;59.736;30.568;2023-04-03T12:42:00;1.52;79.90
71128;SHT30;59249;59.736;30.568;2023-04-03T12:44:47;1.48;80.14
71128;SHT30;59249;59.736;30.568;2023-04-03T12:47:27;1.43;80.84
71128;SHT30;59249;59.736;30.568;2023-04-03T12:49:57;1.50;80.69
71128;SHT30;59249;59.736;30.568;2023-04-03T12:52:40;1.46;80.83
71128;SHT30;59249;59.736;30.568;2023-04-03T12:55:17;1.42;80.98
71128;SHT30;59249;59.736;30.568;2023-04-03T12:57:46;1.46;81.21
71128;SHT30;59249;59.736;30.568;2023-04-03T13:00:33;1.42;81.99
71128;SHT30;59249;59.736;30.568;2023-04-03T13:03:04;1.35;81.86
71128;SHT30;59249;59.736;30.568;2023-04-03T13:05:34;1.30;82.33
71128;SHT30;59249;59.736;30.568;2023-04-03T13:08:10;1.36;82.58
71128;SHT30;59249;59.736;30.568;2023-04-03T13:10:52;1.35;82.33
71128;SHT30;59249;59.736;30.568;2023-04-03T13:13:22;1.30;82.69
71128;SHT30;59249;59.736;30.568;2023-04-03T13:15:55;1.20;82.86
71128;SHT30;59249;59.736;30.568;2023-04-03T13:18:30;1.35;82.76
71128;SHT30;59249;59.736;30.568;2023-04-03T13:21:05;1.30;83.01
71128;SHT30;59249;59.736;30.568;2023-04-03T13:23:39;1.25;83.05
71128;SHT30;59249;59.736;30.568;2023-04-03T13:26:10;1.36;83.36
71128;SHT30;59249;59.736;30.568;2023-04-03T13:28:40;1.25;83.39
71128;SHT30;59249;59.736;30.568;2023-04-03T13:31:22;1.27;83.57
71128;SHT30;59249;59.736;30.568;2023-04-03T13:33:57;1.32;83.79
71128;SHT30;59249;59.736;30.568;2023-04-03T13:36:31;1.31;83.85
71128;SHT30;59249;59.736;30.568;2023-04-03T13:39:06;1.25;83.93
71128;SHT30;59249;59.736;30.568;2023-04-03T13:41:39;1.27;83.85
71128;SHT30;59249;59.736;30.568;2023-04-03T13:44:28;1.27;83.91
71128;SHT30;59249;59.736;30.568;2023-04-03T13:47:00;1.24;84.17
71128;SHT30;59249;59.736;30.568;2023-04-03T13:49:33;1.27;83.80
71128;SHT30;59249;59.736;30.568;2023-04-03T13:52:22;1.25;84.52
71128;SHT30;59249;59.736;30.568;2023-04-03T13:54:56;1.20;84.33
71128;SHT30;59249;59.736;30.568;2023-04-03T13:57:27;1.26;84.14
71128;SHT30;59249;59.736;30.568;2023-04-03T13:59:56;1.24;84.14
71128;SHT30;59249;59.736;30.568;2023-04-03T14:02:32;1.27;84.36
71128;SHT30;59249;59.736;30.568;2023-04-03T14:05:03;1.23;84.64
71128;SHT30;59249;59.736;30.568;2023-04-03T14:07:35;1.17;85.01
71128;SHT30;59249;59.736;30.568;2023-04-03T14:10:06;1.23;84.92
71128;SHT30;59249;59.736;30.568;2023-04-03T14:12:38;1.32;84.76
71128;SHT30;59249;59.736;30.568;2023-04-03T14:15:18;1.36;84.56
71128;SHT30;59249;59.736;30.568;2023-04-03T14:17:48;1.25;84.63
71128;SHT30;59249;59.736;30.568;2023-04-03T14:20:21;1.27;84.18
71128;SHT30;59249;59.736;30.568;2023-04-03T14:22:51;1.23;84.36
71128;SHT30;59249;59.736;30.568;2023-04-03T14:25:21;1.22;84.78
71128;SHT30;59249;59.736;30.568;2023-04-03T14:27:53;1.12;85.10
71128;SHT30;59249;59.736;30.568;2023-04-03T14:30:27;1.06;85.23
71128;SHT30;59249;59.736;30.568;2023-04-03T14:33:02;1.13;84.59
71128;SHT30;59249;59.736;30.568;2023-04-03T14:35:33;1.23;84.40
71128;SHT30;59249;59.736;30.568;2023-04-03T14:38:04;1.16;84.47
71128;SHT30;59249;59.736;30.568;2023-04-03T14:40:33;1.21;83.79
71128;SHT30;59249;59.736;30.568;2023-04-03T14:43:09;1.27;83.22
71128;SHT30;59249;59.736;30.568;2023-04-03T14:45:40;1.21;83.47
71128;SHT30;59249;59.736;30.568;2023-04-03T14:48:16;1.34;83.53
71128;SHT30;59249;59.736;30.568;2023-04-03T14:50:46;1.32;83.85
71128;SHT30;59249;59.736;30.568;2023-04-03T14:53:31;1.27;84.18
71128;SHT30;59249;59.736;30.568;2023-04-03T14:56:11;1.11;84.44
71128;SHT30;59249;59.736;30.568;2023-04-03T14:58:42;1.20;84.23
71128;SHT30;59249;59.736;30.568;2023-04-03T15:01:11;1.22;83.49
71128;SHT30;59249;59.736;30.568;2023-04-03T15:03:41;1.22;82.83
71128;SHT30;59249;59.736;30.568;2023-04-03T15:06:13;1.30;81.82
71128;SHT30;59249;59.736;30.568;2023-04-03T15:08:43;1.27;82.55
71128;SHT30;59249;59.736;30.568;2023-04-03T15:11:14;1.32;82.83
71128;SHT30;59249;59.736;30.568;2023-04-03T15:13:44;1.31;83.11
71128;SHT30;59249;59.736;30.568;2023-04-03T15:16:18;1.20;83.46
71128;SHT30;59249;59.736;30.568;2023-04-03T15:18:48;1.14;83.36
71128;SHT30;59249;59.736;30.568;2023-04-03T15:21:17;1.20;83.01
71128;SHT30;59249;59.736;30.568;2023-04-03T15:23:45;1.07;83.29
71128;SHT30;59249;59.736;30.568;2023-04-03T15:26:14;1.13;82.87
71128;SHT30;59249;59.736;30.568;2023-04-03T15:28:47;1.09;82.73
71128;SHT30;59249;59.736;30.568;2023-04-03T15:31:16;1.14;82.40
71128;SHT30;59249;59.736;30.568;2023-04-03T15:33:44;1.10;82.12
71128;SHT30;59249;59.736;30.568;2023-04-03T15:36:13;1.21;81.64
71128;SHT30;59249;59.736;30.568;2023-04-03T15:38:59;1.08;81.96
71128;SHT30;59249;59.736;30.568;2023-04-03T15:41:28;1.08;81.94
71128;SHT30;59249;59.736;30.568;2023-04-03T15:43:58;1.24;81.58
71128;SHT30;59249;59.736;30.568;2023-04-03T15:46:26;1.15;81.95
71128;SHT30;59249;59.736;30.568;2023-04-03T15:48:55;1.04;81.91
71128;SHT30;59249;59.736;30.568;2023-04-03T15:51:24;1.15;82.01
71128;SHT30;59249;59.736;30.568;2023-04-03T15:53:53;1.13;81.97
71128;SHT30;59249;59.736;30.568;2023-04-03T15:56:24;1.19;80.74
71128;SHT30;59249;59.736;30.568;2023-04-03T15:58:53;1.13;80.58
71128;SHT30;59249;59.736;30.568;2023-04-03T16:01:23;1.11;80.53
71128;SHT30;59249;59.736;30.568;2023-04-03T16:03:56;1.04;80.11
71128;SHT30;59249;59.736;30.568;2023-04-03T16:06:26;1.09;79.26
71128;SHT30;59249;59.736;30.568;2023-04-03T16:09:00;1.17;78.69